Time;durP1;ratioP1;P1;durP2;ratioP2;P2;SDS_P1;SDS_P2;PMS_P1;PMS_P2;Temp;Humidity;BMP_temperature;BMP_pressure;BME280_temperature;BME280_humidity;BME280_pressure;Samples;Min_cycle;Max_cycle;Signal;HPM_P1;HPM_P2
2021/04/17 00:02:57;;;;;;;9.83;8.40;;;;;;;2.96;84.12;99054.93;2226671;80;21111;-80
2021/04/17 00:05:58;;;;;;;11.27;9.33;;;;;;;2.99;84.20;99043.46;2226929;80;21102;-80
2021/04/17 00:08:59;;;;;;;14.80;10.10;;;;;;;2.99;84.17;99046.05;2226858;80;21090;-80
2021/04/17 00:12:01;;;;;;;15.47;10.00;;;;;;;2.97;84.22;99046.38;2227159;80;21267;-80
2021/04/17 00:15:02;;;;;;;12.50;11.00;;;;;;;3.01;84.23;99043.13;2227328;80;21137;-80
2021/04/17 00:18:03;;;;;;;13.30;11.33;;;;;;;3.04;84.23;99039.39;2227047;80;21114;-80
2021/04/17 00:21:04;;;;;;;13.77;11.97;;;;;;;3.06;84.15;99036.88;2226775;80;21094;-79
2021/04/17 00:24:08;;;;;;;18.73;13.40;;;;;;;3.06;84.14;99036.88;2226743;80;21113;-79
2021/04/17 00:27:09;;;;;;;15.20;13.60;;;;;;;3.04;84.12;99030.36;2227114;79;21153;-79
2021/04/17 00:30:10;;;;;;;16.87;14.50;;;;;;;3.03;84.22;99028.60;2227131;80;21058;-79
2021/04/17 00:33:11;;;;;;;18.20;12.80;;;;;;;3.04;84.14;99021.75;2226336;80;21130;-79
2021/04/17 00:36:12;;;;;;;28.90;19.17;;;;;;;3.07;84.27;99025.34;2226239;80;21110;-78
2021/04/17 00:39:13;;;;;;;21.60;16.13;;;;;;;3.05;84.17;99028.26;2226535;80;21090;-78
2021/04/17 00:42:16;;;;;;;18.20;16.17;;;;;;;3.06;84.22;99023.98;2226103;80;21109;-78
2021/04/17 00:45:17;;;;;;;21.17;15.90;;;;;;;3.11;84.23;99023.78;2226206;80;21046;-78
2021/04/17 00:48:19;;;;;;;19.80;15.43;;;;;;;3.15;84.28;99025.67;2226400;80;21224;-79
2021/04/17 00:51:20;;;;;;;19.03;15.70;;;;;;;3.19;84.12;99027.16;2225863;80;21141;-77
2021/04/17 00:54:21;;;;;;;19.17;14.20;;;;;;;3.26;84.23;99026.14;2226534;80;21392;-79
2021/04/17 00:57:22;;;;;;;17.60;14.00;;;;;;;3.29;84.07;99027.16;2226917;80;21062;-80
2021/04/17 01:00:23;;;;;;;12.50;11.20;;;;;;;3.26;83.86;99029.61;2226523;80;21117;-79
2021/04/17 01:03:24;;;;;;;15.33;12.07;;;;;;;3.22;83.74;99029.41;2226252;80;21082;-78
2021/04/17 01:06:25;;;;;;;14.87;12.43;;;;;;;3.20;83.82;99031.92;2226138;80;21387;-78
2021/04/17 01:09:26;;;;;;;14.40;12.40;;;;;;;3.19;83.87;99032.33;2226241;80;21074;-79
2021/04/17 01:12:27;;;;;;;14.33;12.00;;;;;;;3.19;83.82;99031.44;2226843;80;21134;-79
2021/04/17 01:15:28;;;;;;;16.70;13.90;;;;;;;3.20;83.95;99028.93;2226549;80;21093;-79
2021/04/17 01:18:29;;;;;;;15.80;13.03;;;;;;;3.26;84.03;99026.14;2226312;80;21372;-79
2021/04/17 01:21:30;;;;;;;17.00;13.53;;;;;;;3.30;83.88;99024.17;2226288;80;21114;-78
2021/04/17 01:24:31;;;;;;;16.53;13.10;;;;;;;3.33;83.80;99029.46;2226280;79;21257;-79
2021/04/17 01:27:32;;;;;;;17.80;14.37;;;;;;;3.33;83.71;99025.19;2226058;79;21142;-77
2021/04/17 01:30:33;;;;;;;19.17;14.57;;;;;;;3.30;83.68;99033.20;2226135;80;21101;-78
2021/04/17 01:33:34;;;;;;;17.83;14.13;;;;;;;3.28;83.79;99032.25;2226574;79;21248;-78
2021/04/17 01:36:36;;;;;;;16.83;13.93;;;;;;;3.25;83.77;99032.12;2226303;80;21093;-79
2021/04/17 01:39:39;;;;;;;23.57;15.77;;;;;;;3.23;83.93;99025.60;2226203;79;21094;-78
2021/04/17 01:42:39;;;;;;;21.20;15.10;;;;;;;3.25;84.09;99028.25;2226531;80;21386;-79
2021/04/17 01:45:41;;;;;;;22.80;16.80;;;;;;;3.25;84.08;99027.84;2226791;80;21062;-79
2021/04/17 01:48:42;;;;;;;25.37;16.77;;;;;;;3.26;84.10;99024.45;2226693;80;21122;-78
2021/04/17 01:51:43;;;;;;;44.47;17.40;;;;;;;3.30;84.13;99018.59;2226730;80;21173;-79
2021/04/17 01:54:44;;;;;;;34.00;15.53;;;;;;;3.36;84.15;99017.98;2226525;80;21398;-78
2021/04/17 01:57:45;;;;;;;42.87;16.40;;;;;;;3.32;84.18;99016.09;2226524;80;21128;-77
2021/04/17 02:00:46;;;;;;;38.07;17.20;;;;;;;3.29;84.15;99018.53;2226605;80;21204;-77
2021/04/17 02:03:47;;;;;;;44.43;16.20;;;;;;;3.30;84.25;99017.72;2226589;80;21106;-80
2021/04/17 02:06:48;;;;;;;32.33;15.50;;;;;;;3.36;84.35;99025.72;2226499;80;21106;-78
2021/04/17 02:09:49;;;;;;;39.03;16.10;;;;;;;3.37;84.27;99018.45;2226312;80;21376;-78
2021/04/17 02:12:50;;;;;;;34.73;18.20;;;;;;;3.37;84.27;99016.76;2226476;80;21118;-78
2021/04/17 02:15:51;;;;;;;31.17;15.60;;;;;;;3.39;84.26;99013.83;2226395;80;21102;-78
2021/04/17 02:18:52;;;;;;;25.47;14.33;;;;;;;3.43;84.30;99009.27;2226526;80;21102;-78
2021/04/17 02:21:53;;;;;;;32.80;17.20;;;;;;;3.44;84.36;99016.20;2226343;80;21078;-77
2021/04/17 02:24:54;;;;;;;25.70;16.10;;;;;;;3.43;84.28;99018.72;2226465;80;21391;-79
2021/04/17 02:27:55;;;;;;;26.77;16.97;;;;;;;3.43;84.33;99014.84;2226553;79;21153;-79
2021/04/17 02:30:56;;;;;;;30.57;18.00;;;;;;;3.45;84.32;99015.80;2226255;80;21125;-79
2021/04/17 02:33:57;;;;;;;25.77;17.07;;;;;;;3.47;84.37;99018.95;2226340;79;21384;-78
2021/04/17 02:36:58;;;;;;;27.50;16.30;;;;;;;3.50;84.36;99011.74;2226569;80;21105;-78
2021/04/17 02:39:59;;;;;;;33.30;18.57;;;;;;;3.48;84.28;99013.38;2226384;80;21102;-78
2021/04/17 02:43:01;;;;;;;27.20;14.33;;;;;;;3.48;84.31;99006.52;2226308;79;21078;-79
2021/04/17 02:46:02;;;;;;;36.23;18.87;;;;;;;3.47;84.45;99007.73;2226820;80;21122;-80
2021/04/17 02:49:03;;;;;;;31.20;19.90;;;;;;;3.44;84.39;99016.20;2226285;80;21101;-77
2021/04/17 02:52:04;;;;;;;33.37;19.93;;;;;;;3.44;84.37;99012.33;2226285;80;21440;-78
2021/04/17 02:55:05;;;;;;;31.30;18.17;;;;;;;3.47;84.45;99011.61;2226209;80;21145;-78
2021/04/17 02:58:06;;;;;;;29.57;19.17;;;;;;;3.49;84.57;99008.69;2226887;80;21120;-78
2021/04/17 03:01:07;;;;;;;30.33;19.63;;;;;;;3.49;84.52;99008.28;2226723;80;21126;-79
2021/04/17 03:04:08;;;;;;;30.80;20.67;;;;;;;3.51;84.48;99006.64;2226505;80;21106;-78
2021/04/17 03:07:09;;;;;;;34.47;21.83;;;;;;;3.53;84.46;99004.13;2226472;80;21098;-78
2021/04/17 03:10:10;;;;;;;29.57;18.97;;;;;;;3.53;84.41;99000.25;2226622;80;21102;-79
2021/04/17 03:13:11;;;;;;;32.80;20.57;;;;;;;3.55;84.50;99004.19;2226455;79;21156;-78
2021/04/17 03:16:12;;;;;;;30.33;20.63;;;;;;;3.56;84.51;99005.55;2226420;79;21066;-79
2021/04/17 03:19:13;;;;;;;32.47;21.17;;;;;;;3.56;84.49;99002.97;2226459;80;21113;-78
2021/04/17 03:22:14;;;;;;;34.00;20.13;;;;;;;3.58;84.57;99008.19;2226306;80;21117;-79
2021/04/17 03:25:15;;;;;;;35.40;22.23;;;;;;;3.59;84.48;99004.79;2226361;80;21153;-79
2021/04/17 03:28:16;;;;;;;33.43;22.40;;;;;;;3.63;84.51;99006.68;2249398;79;21145;-79
2021/04/17 03:31:17;;;;;;;36.77;23.73;;;;;;;3.65;84.41;99012.38;2258432;79;21136;-79
2021/04/17 03:34:18;;;;;;;49.23;30.10;;;;;;;3.68;84.38;99011.22;2257983;79;21092;-80
2021/04/17 03:37:19;;;;;;;47.10;29.20;;;;;;;3.72;84.49;99013.52;2258130;79;21271;-79
2021/04/17 03:40:20;;;;;;;40.40;25.43;;;;;;;3.78;84.40;99015.06;2257842;79;21108;-78
2021/04/17 03:43:21;;;;;;;50.43;31.00;;;;;;;3.81;84.26;99021.64;2258088;79;21097;-78
2021/04/17 03:46:22;;;;;;;52.40;31.67;;;;;;;3.85;84.42;99022.23;2257842;79;21089;-80
2021/04/17 03:49:23;;;;;;;52.53;30.87;;;;;;;3.90;84.32;99024.59;2258096;79;21089;-79
2021/04/17 03:52:25;;;;;;;52.07;30.27;;;;;;;3.96;84.26;99023.55;2258469;79;21152;-79
2021/04/17 03:55:26;;;;;;;38.13;26.03;;;;;;;4.00;84.06;99019.39;2258207;79;21141;-80
2021/04/17 03:58:27;;;;;;;37.97;23.33;;;;;;;4.02;84.12;99028.97;2258426;79;21109;-79
2021/04/17 04:01:28;;;;;;;31.13;21.20;;;;;;;4.07;84.01;99026.16;2258306;79;21124;-79
2021/04/17 04:04:30;;;;;;;32.03;19.90;;;;;;;4.15;83.96;99033.80;2258300;78;21525;-79
2021/04/17 04:07:31;;;;;;;25.57;18.03;;;;;;;4.17;83.79;99026.11;2258363;79;21081;-79
2021/04/17 04:10:32;;;;;;;37.23;23.30;;;;;;;4.19;83.57;99032.23;2257937;79;21097;-79
2021/04/17 04:13:33;;;;;;;30.50;23.00;;;;;;;4.21;83.63;99033.16;2257966;79;21144;-79
2021/04/17 04:16:34;;;;;;;33.17;24.17;;;;;;;4.26;83.52;99038.52;2258266;79;21211;-80
2021/04/17 04:19:35;;;;;;;32.57;19.83;;;;;;;4.29;83.59;99038.23;2258242;79;21089;-80
2021/04/17 04:22:36;;;;;;;23.53;19.20;;;;;;;4.35;83.60;99037.62;2258172;78;21224;-79
2021/04/17 04:25:38;;;;;;;27.57;22.43;;;;;;;4.37;83.29;99045.91;2258304;79;21387;-80
2021/04/17 04:28:39;;;;;;;23.40;18.30;;;;;;;4.39;83.23;99042.09;2234901;79;21157;-81
2021/04/17 04:31:40;;;;;;;35.30;24.27;;;;;;;4.37;83.05;99045.91;2226696;80;21138;-80
2021/04/17 04:34:41;;;;;;;31.03;21.50;;;;;;;4.34;83.10;99039.32;2227090;80;21110;-80
2021/04/17 04:37:42;;;;;;;34.17;24.60;;;;;;;4.36;83.21;99046.73;2226962;80;21515;-81
2021/04/17 04:40:43;;;;;;;37.67;23.00;;;;;;;4.37;83.30;99045.91;2227133;79;21204;-80
2021/04/17 04:43:44;;;;;;;34.33;23.43;;;;;;;4.41;83.18;99048.20;2226993;80;21359;-81
2021/04/17 04:46:45;;;;;;;37.37;23.80;;;;;;;4.41;83.14;99049.48;2226934;80;21097;-80
2021/04/17 04:49:46;;;;;;;29.20;22.83;;;;;;;4.46;83.18;99053.14;2226654;80;21082;-80
2021/04/17 04:52:48;;;;;;;30.27;23.63;;;;;;;4.45;83.14;99056.13;2226516;80;21134;-79
2021/04/17 04:55:49;;;;;;;27.50;19.17;;;;;;;4.45;83.03;99056.13;2226830;80;21424;-79
2021/04/17 04:58:50;;;;;;;30.33;20.80;;;;;;;4.45;82.90;99057.42;2226927;80;21101;-79
2021/04/17 05:01:51;;;;;;;23.90;19.07;;;;;;;4.42;82.89;99056.42;2226680;79;21117;-78
2021/04/17 05:04:52;;;;;;;25.20;18.30;;;;;;;4.39;82.92;99059.77;2226182;80;21062;-79
2021/04/17 05:07:53;;;;;;;28.33;20.87;;;;;;;4.38;83.01;99064.88;2226212;80;21114;-79
2021/04/17 05:10:54;;;;;;;29.80;20.47;;;;;;;4.36;83.08;99061.34;2226377;80;21082;-79
2021/04/17 05:13:57;;;;;;;29.53;20.77;;;;;;;4.39;83.18;99059.77;2226267;80;21392;-79
2021/04/17 05:16:58;;;;;;;29.03;18.80;;;;;;;4.43;83.33;99065.94;2226447;80;21125;-79
2021/04/17 05:19:59;;;;;;;28.83;17.83;;;;;;;4.51;83.25;99063.66;2226578;80;21105;-78
2021/04/17 05:23:01;;;;;;;23.40;17.20;;;;;;;4.53;83.08;99059.02;2226647;80;21113;-80
2021/04/17 05:26:02;;;;;;;19.27;14.60;;;;;;;4.57;83.17;99058.72;2226970;79;21272;-78
2021/04/17 05:29:04;;;;;;;22.33;16.47;;;;;;;4.64;83.04;99059.43;2251665;79;21383;-78
2021/04/17 05:32:05;;;;;;;42.37;22.17;;;;;;;4.67;83.02;99061.72;2258058;79;21160;-81
2021/04/17 05:35:06;;;;;;;30.17;20.27;;;;;;;4.73;82.93;99060.66;2258448;79;21105;-81
2021/04/17 05:38:07;;;;;;;34.93;24.40;;;;;;;4.83;82.95;99067.06;2258484;79;21105;-79
2021/04/17 05:41:08;;;;;;;42.87;23.90;;;;;;;4.91;82.75;99063.06;2258830;79;21215;-80
2021/04/17 05:44:12;;;;;;;33.77;22.83;;;;;;;4.96;82.61;99065.82;2259268;79;21128;-81
2021/04/17 05:47:13;;;;;;;36.03;22.87;;;;;;;5.05;82.46;99067.05;2258374;79;21128;-81
2021/04/17 05:50:14;;;;;;;30.50;19.17;;;;;;;5.08;82.16;99063.69;2258534;79;21085;-81
2021/04/17 05:53:15;;;;;;;38.43;24.60;;;;;;;5.16;81.99;99060.08;2258312;79;21407;-80
2021/04/17 05:56:16;;;;;;;30.70;21.50;;;;;;;5.18;81.80;99064.91;2258364;78;21117;-80
2021/04/17 05:59:17;;;;;;;27.87;19.10;;;;;;;5.21;81.70;99063.34;2258544;79;21109;-80
2021/04/17 06:02:19;;;;;;;30.67;19.87;;;;;;;5.24;81.68;99062.16;2258458;79;21093;-81
2021/04/17 06:05:20;;;;;;;34.37;21.63;;;;;;;5.28;81.59;99063.15;2258551;79;21115;-78
2021/04/17 06:08:21;;;;;;;41.87;24.87;;;;;;;5.31;81.51;99063.27;2258371;79;21124;-80
2021/04/17 06:11:22;;;;;;;35.97;23.73;;;;;;;5.42;81.68;99067.11;2258148;79;21140;-80
2021/04/17 06:14:23;;;;;;;47.97;29.07;;;;;;;5.43;81.30;99062.41;2258259;79;21391;-80
2021/04/17 06:17:24;;;;;;;34.53;23.07;;;;;;;5.42;81.40;99063.23;2258588;79;21087;-79
2021/04/17 06:20:25;;;;;;;34.03;21.83;;;;;;;5.47;81.44;99061.69;2258767;79;21207;-79
2021/04/17 06:23:27;;;;;;;31.87;22.33;;;;;;;5.50;81.26;99059.20;2257823;79;21077;-80
2021/04/17 06:26:28;;;;;;;32.80;22.07;;;;;;;5.50;81.44;99051.84;2257740;79;21116;-79
2021/04/17 06:29:29;;;;;;;29.20;18.87;;;;;;;5.48;81.28;99051.80;2258166;79;21140;-79
2021/04/17 06:32:30;;;;;;;32.23;20.07;;;;;;;5.40;81.03;99053.23;2258082;79;21431;-79
2021/04/17 06:35:33;;;;;;;26.23;18.07;;;;;;;5.42;81.15;99050.28;2258008;79;21123;-79
2021/04/17 06:38:35;;;;;;;24.40;17.83;;;;;;;5.43;80.92;99058.52;2257909;79;21061;-78
2021/04/17 06:41:36;;;;;;;25.03;18.90;;;;;;;5.37;81.06;99050.53;2257956;79;21320;-79
2021/04/17 06:44:37;;;;;;;29.87;19.57;;;;;;;5.35;81.06;99059.95;2257978;79;21121;-79
2021/04/17 06:47:38;;;;;;;31.57;21.03;;;;;;;5.28;81.22;99060.15;2257832;79;21124;-79
2021/04/17 06:50:39;;;;;;;28.27;19.27;;;;;;;5.27;81.51;99066.56;2257887;79;21092;-79
2021/04/17 06:53:40;;;;;;;26.43;18.80;;;;;;;5.25;81.35;99063.04;2257924;79;21157;-79
2021/04/17 06:56:41;;;;;;;30.37;19.07;;;;;;;5.17;81.31;99061.84;2258195;79;21377;-78
2021/04/17 06:59:42;;;;;;;28.67;21.83;;;;;;;5.15;81.49;99061.79;2257964;79;21104;-79
2021/04/17 07:02:43;;;;;;;24.20;17.77;;;;;;;5.14;81.49;99061.32;2257842;79;21089;-78
2021/04/17 07:05:44;;;;;;;28.53;20.33;;;;;;;5.13;81.56;99063.03;2257922;79;21121;-77
2021/04/17 07:08:45;;;;;;;26.90;19.33;;;;;;;5.13;81.54;99071.20;2257789;79;21093;-77
2021/04/17 07:11:46;;;;;;;25.67;18.17;;;;;;;5.08;81.71;99069.74;2257727;78;21149;-78
2021/04/17 07:14:47;;;;;;;24.77;18.03;;;;;;;5.08;81.58;99069.74;2258079;79;21367;-79
2021/04/17 07:17:49;;;;;;;32.00;20.30;;;;;;;5.06;81.81;99073.09;2258003;79;21104;-78
2021/04/17 07:20:51;;;;;;;27.47;18.80;;;;;;;5.07;81.95;99077.45;2257982;78;21077;-78
2021/04/17 07:23:52;;;;;;;31.13;20.70;;;;;;;5.03;81.61;99077.75;2257799;79;21093;-78
2021/04/17 07:26:53;;;;;;;37.30;22.40;;;;;;;5.04;81.86;99080.80;2257739;79;21426;-78
2021/04/17 07:29:54;;;;;;;54.27;30.67;;;;;;;5.06;81.99;99074.39;2229413;78;21122;-78
2021/04/17 07:32:55;;;;;;;46.30;27.03;;;;;;;5.09;81.95;99079.67;2226253;80;21118;-78
2021/04/17 07:35:56;;;;;;;49.40;26.47;;;;;;;5.10;81.98;99087.50;2226325;80;21355;-79
2021/04/17 07:38:57;;;;;;;45.27;25.03;;;;;;;5.15;82.09;99083.78;2226295;80;21097;-78
2021/04/17 07:41:58;;;;;;;46.33;25.87;;;;;;;5.22;81.89;99077.16;2226465;80;21059;-79
2021/04/17 07:44:59;;;;;;;50.80;28.40;;;;;;;5.30;81.85;99075.32;2226616;80;21097;-78
2021/04/17 07:48:00;;;;;;;32.80;22.27;;;;;;;5.37;81.79;99077.72;2226423;80;21106;-79
2021/04/17 07:51:02;;;;;;;33.17;21.70;;;;;;;5.41;81.60;99082.17;2226502;80;21106;-79
2021/04/17 07:54:03;;;;;;;32.87;21.20;;;;;;;5.49;81.67;99081.16;2226330;80;21090;-79
2021/04/17 07:57:04;;;;;;;31.17;19.30;;;;;;;5.56;81.10;99080.13;2226920;80;21122;-79
2021/04/17 08:00:05;;;;;;;29.47;20.67;;;;;;;5.58;81.32;99086.25;2226312;80;21113;-77
2021/04/17 08:03:06;;;;;;;28.77;20.13;;;;;;;5.60;80.88;99084.59;2226177;80;21066;-78
2021/04/17 08:06:07;;;;;;;33.50;22.60;;;;;;;5.61;80.96;99087.65;2226204;80;21106;-78
2021/04/17 08:09:08;;;;;;;32.07;23.40;;;;;;;5.72;81.01;99088.02;2226190;80;21231;-78
2021/04/17 08:12:09;;;;;;;30.20;21.37;;;;;;;5.80;80.94;99086.98;2226120;80;21443;-77
2021/04/17 08:15:11;;;;;;;33.00;23.80;;;;;;;5.83;80.68;99093.57;2226190;80;21110;-77
2021/04/17 08:18:12;;;;;;;31.83;21.63;;;;;;;5.87;80.71;99090.25;2226306;80;21095;-78
2021/04/17 08:21:13;;;;;;;27.37;20.67;;;;;;;5.89;80.67;99092.11;2226422;80;21113;-78
2021/04/17 08:24:14;;;;;;;29.57;21.63;;;;;;;5.89;80.07;99086.01;2226153;80;21102;-78
2021/04/17 08:27:15;;;;;;;27.10;19.60;;;;;;;5.90;80.34;99092.57;2226146;80;21130;-78
2021/04/17 08:30:16;;;;;;;30.33;21.03;;;;;;;5.88;80.18;99090.72;2255632;79;21419;-78
2021/04/17 08:33:17;;;;;;;28.37;19.87;;;;;;;5.88;80.08;99094.61;2257667;79;21140;-78
2021/04/17 08:36:18;;;;;;;48.70;29.03;;;;;;;5.81;80.28;99090.93;2257838;78;21065;-79
2021/04/17 08:39:19;;;;;;;33.07;22.97;;;;;;;5.75;80.26;99092.02;2257744;79;21220;-78
2021/04/17 08:42:20;;;;;;;32.80;22.83;;;;;;;5.69;80.37;99096.56;2257676;79;21084;-77
2021/04/17 08:45:21;;;;;;;32.33;22.83;;;;;;;5.66;80.38;99095.16;2257974;79;21096;-78
2021/04/17 08:48:22;;;;;;;36.10;24.77;;;;;;;5.69;80.79;99093.98;2257942;79;21089;-78
2021/04/17 08:51:25;;;;;;;31.20;22.90;;;;;;;5.76;80.70;99092.48;2257751;79;21140;-77
2021/04/17 08:54:26;;;;;;;39.77;26.80;;;;;;;5.74;80.33;99100.20;2258197;79;21238;-77
2021/04/17 08:57:27;;;;;;;44.53;30.43;;;;;;;5.73;80.62;99094.55;2257886;79;21359;-77
2021/04/17 09:00:28;;;;;;;43.77;27.20;;;;;;;5.81;80.93;99104.30;2257981;79;21109;-78
2021/04/17 09:03:29;;;;;;;35.47;22.67;;;;;;;5.82;80.41;99102.17;2257829;79;21423;-77
2021/04/17 09:06:30;;;;;;;33.33;23.93;;;;;;;5.82;80.49;99096.58;2257977;79;21403;-78
2021/04/17 09:09:32;;;;;;;29.43;21.37;;;;;;;5.89;80.49;99102.84;2258009;78;21088;-78
2021/04/17 09:12:33;;;;;;;30.97;20.90;;;;;;;5.95;80.37;99097.91;2257890;78;21434;-78
2021/04/17 09:15:34;;;;;;;25.33;18.57;;;;;;;6.03;80.23;99097.75;2257964;79;21120;-78
2021/04/17 09:18:35;;;;;;;26.83;19.83;;;;;;;6.15;80.20;99093.43;2258138;79;21108;-78
2021/04/17 09:21:36;;;;;;;28.77;20.10;;;;;;;6.18;80.14;99092.23;2257884;79;21133;-77
2021/04/17 09:24:37;;;;;;;24.13;16.77;;;;;;;6.27;79.91;99096.42;2257920;79;21093;-77
2021/04/17 09:27:39;;;;;;;22.37;17.67;;;;;;;6.33;79.73;99097.91;2257973;78;21395;-78
2021/04/17 09:30:40;;;;;;;32.83;21.17;;;;;;;6.24;79.79;99096.33;2258065;79;21259;-77
2021/04/17 09:33:41;;;;;;;26.10;17.40;;;;;;;6.25;80.59;99102.85;2257854;79;21121;-77
2021/04/17 09:36:42;;;;;;;24.13;16.07;;;;;;;6.25;80.59;99102.85;2257883;79;21109;-77
2021/04/17 09:39:43;;;;;;;24.03;14.57;;;;;;;6.27;80.19;99105.08;2258080;78;21239;-78
2021/04/17 09:42:44;;;;;;;20.03;14.67;;;;;;;6.21;80.05;99110.48;2257879;79;21376;-77
2021/04/17 09:45:46;;;;;;;19.77;14.20;;;;;;;6.17;80.21;99109.50;2257935;79;21106;-77
2021/04/17 09:48:47;;;;;;;21.27;15.17;;;;;;;6.21;80.48;99110.06;2257956;79;21101;-77
2021/04/17 09:51:48;;;;;;;20.77;15.00;;;;;;;6.27;80.30;99107.67;2257828;79;21402;-76
2021/04/17 09:54:49;;;;;;;21.90;15.87;;;;;;;6.28;80.21;99108.14;2257899;79;21391;-77
2021/04/17 09:57:50;;;;;;;21.43;16.70;;;;;;;6.28;80.21;99108.14;2257855;79;21140;-78
2021/04/17 10:00:51;;;;;;;24.70;18.20;;;;;;;6.30;80.19;99107.77;2258178;79;21061;-78
2021/04/17 10:03:52;;;;;;;27.57;18.23;;;;;;;6.33;80.39;99100.09;2257822;79;21104;-78
2021/04/17 10:06:53;;;;;;;20.73;14.23;;;;;;;6.33;80.39;99100.09;2257925;78;21109;-77
2021/04/17 10:09:54;;;;;;;21.20;14.67;;;;;;;6.41;79.98;99104.65;2258606;78;21466;-77
2021/04/17 10:12:55;;;;;;;19.80;14.30;;;;;;;6.44;79.89;99104.33;2257946;79;21172;-78
2021/04/17 10:15:56;;;;;;;18.70;12.43;;;;;;;6.45;79.72;99107.80;2257448;79;21088;-78
2021/04/17 10:18:58;;;;;;;23.10;16.93;;;;;;;6.39;79.93;99106.77;2257858;79;21093;-78
2021/04/17 10:21:59;;;;;;;22.57;15.67;;;;;;;6.31;79.89;99104.77;2257881;79;21109;-78
2021/04/17 10:25:00;;;;;;;26.80;18.17;;;;;;;6.27;80.13;99108.97;2257992;78;21065;-78
2021/04/17 10:28:02;;;;;;;22.30;14.73;;;;;;;6.29;80.28;99105.12;2258149;79;21132;-78
2021/04/17 10:31:07;;;;;;;19.37;14.73;;;;;;;6.37;80.26;99109.73;2257832;79;21117;-77
2021/04/17 10:34:06;;;;;;;53.23;30.67;;;;;;;6.34;80.28;99100.56;2257369;79;21144;-77
2021/04/17 10:37:07;;;;;;;78.87;42.53;;;;;;;6.32;80.30;99105.23;2257766;79;21093;-78
2021/04/17 10:40:08;;;;;;;69.57;42.90;;;;;;;6.28;80.32;99113.73;2257869;79;21061;-78
2021/04/17 10:43:09;;;;;;;37.67;26.13;;;;;;;6.28;80.32;99113.73;2257992;79;21116;-78
2021/04/17 10:46:10;;;;;;;38.47;24.67;;;;;;;6.29;80.54;99112.49;2258073;79;21280;-77
2021/04/17 10:49:11;;;;;;;42.00;27.00;;;;;;;6.26;80.75;99120.17;2257335;79;21085;-77
2021/04/17 10:52:12;;;;;;;32.00;21.87;;;;;;;6.26;80.75;99120.17;2257641;79;21144;-78
2021/04/17 10:55:14;;;;;;;36.33;24.00;;;;;;;6.22;80.50;99119.60;2258019;79;21076;-77
2021/04/17 10:58:15;;;;;;;35.77;25.07;;;;;;;6.21;80.48;99120.44;2257947;79;21117;-78
2021/04/17 11:01:16;;;;;;;40.13;26.10;;;;;;;6.28;80.95;99121.10;2257860;79;21106;-76
2021/04/17 11:04:17;;;;;;;46.73;32.33;;;;;;;6.30;80.58;99123.33;2257820;79;21092;-77
2021/04/17 11:07:18;;;;;;;41.27;27.07;;;;;;;6.31;80.76;99118.61;2257888;79;21104;-77
2021/04/17 11:10:20;;;;;;;34.73;24.40;;;;;;;6.37;80.77;99120.11;2257839;78;21101;-77
2021/04/17 11:13:21;;;;;;;26.63;19.90;;;;;;;6.44;80.88;99128.09;2257802;79;21144;-78
2021/04/17 11:16:22;;;;;;;24.30;19.13;;;;;;;6.50;80.60;99122.68;2257810;79;21100;-78
2021/04/17 11:19:23;;;;;;;25.87;20.10;;;;;;;6.50;80.54;99120.50;2257781;78;21116;-77
2021/04/17 11:22:25;;;;;;;27.77;20.37;;;;;;;6.56;80.63;99128.48;2258338;78;21124;-78
2021/04/17 11:25:27;;;;;;;25.87;18.67;;;;;;;6.57;80.38;99131.13;2257837;78;21089;-77
2021/04/17 11:28:28;;;;;;;29.23;17.00;;;;;;;6.51;79.96;99128.75;2257668;79;21137;-78
2021/04/17 11:31:29;;;;;;;24.73;19.60;;;;;;;6.41;80.17;99131.87;2258028;79;21418;-78
2021/04/17 11:34:30;;;;;;;48.23;27.47;;;;;;;6.34;80.31;99130.79;2258011;79;21355;-78
2021/04/17 11:37:31;;;;;;;59.13;29.53;;;;;;;6.34;80.31;99130.79;2257895;79;21395;-78
2021/04/17 11:40:32;;;;;;;47.80;26.80;;;;;;;6.36;80.59;99137.79;2257793;79;21336;-77
2021/04/17 11:43:33;;;;;;;40.53;26.10;;;;;;;6.38;80.33;99141.73;2257720;79;21089;-79
2021/04/17 11:46:35;;;;;;;26.47;19.33;;;;;;;6.37;80.40;99136.95;2257793;78;21073;-78
2021/04/17 11:49:36;;;;;;;24.10;19.00;;;;;;;6.46;80.25;99136.80;2257778;78;21081;-78
2021/04/17 11:52:37;;;;;;;24.70;18.00;;;;;;;6.46;80.56;99136.80;2257725;79;21447;-77
2021/04/17 11:55:38;;;;;;;26.53;20.63;;;;;;;6.42;80.60;99141.41;2257783;79;21125;-78
2021/04/17 11:58:39;;;;;;;34.50;23.70;;;;;;;6.43;80.38;99139.29;2257739;78;21132;-78
2021/04/17 12:01:40;;;;;;;38.47;23.07;;;;;;;6.43;80.38;99139.29;2257768;79;21065;-77
2021/04/17 12:04:41;;;;;;;60.23;29.00;;;;;;;6.47;80.34;99133.38;2257546;79;21073;-78
2021/04/17 12:07:45;;;;;;;43.87;25.53;;;;;;;6.46;80.30;99133.78;2257135;79;21745;-78
2021/04/17 12:10:46;;;;;;;37.80;24.23;;;;;;;6.51;80.27;99141.72;2257925;78;21066;-78
2021/04/17 12:13:47;;;;;;;37.00;23.77;;;;;;;6.52;80.42;99135.28;2257707;78;21133;-79
2021/04/17 12:16:48;;;;;;;31.53;19.30;;;;;;;6.54;80.45;99136.21;2257815;79;21120;-79
2021/04/17 12:19:49;;;;;;;27.67;19.80;;;;;;;6.59;80.28;99140.25;2257733;79;21117;-78
2021/04/17 12:22:50;;;;;;;36.40;23.23;;;;;;;6.56;79.92;99138.44;2257733;79;21363;-78
2021/04/17 12:25:51;;;;;;;34.07;22.50;;;;;;;6.52;80.03;99137.88;2257741;78;21236;-78
2021/04/17 12:28:52;;;;;;;23.87;17.43;;;;;;;6.60;80.39;99140.72;2257598;79;21436;-78
2021/04/17 12:31:53;;;;;;;21.53;16.73;;;;;;;6.58;79.79;99143.67;2258104;79;21168;-78
2021/04/17 12:34:55;;;;;;;26.70;18.37;;;;;;;6.51;80.07;99143.01;2257730;79;21101;-79
2021/04/17 12:37:56;;;;;;;31.00;21.83;;;;;;;6.57;80.14;99147.98;2257285;79;21212;-78
2021/04/17 12:40:57;;;;;;;23.03;16.07;;;;;;;6.60;80.30;99145.90;2257507;79;21497;-77
2021/04/17 12:43:58;;;;;;;19.70;14.73;;;;;;;6.55;79.81;99140.56;2257964;79;21061;-78
2021/04/17 12:46:59;;;;;;;25.93;17.50;;;;;;;6.50;79.67;99139.54;2257834;78;21386;-78
2021/04/17 12:50:00;;;;;;;25.60;17.13;;;;;;;6.55;79.95;99139.69;2257743;78;21386;-78
2021/04/17 12:53:01;;;;;;;29.50;18.93;;;;;;;6.55;79.95;99139.69;2257988;79;21168;-77
2021/04/17 12:56:02;;;;;;;28.63;17.37;;;;;;;6.58;80.14;99143.67;2257752;79;21077;-78
2021/04/17 12:59:03;;;;;;;27.57;17.63;;;;;;;6.63;79.98;99144.28;2257803;79;21391;-78
2021/04/17 13:02:04;;;;;;;25.83;17.70;;;;;;;6.52;79.90;99140.47;2257974;79;21108;-78
2021/04/17 13:05:06;;;;;;;20.87;15.10;;;;;;;6.52;79.90;99140.47;2257759;79;21105;-77
2021/04/17 13:08:07;;;;;;;21.97;16.67;;;;;;;6.47;79.78;99139.85;2257764;79;21117;-77
2021/04/17 13:11:08;;;;;;;28.43;17.83;;;;;;;6.52;80.32;99138.29;2257925;79;21061;-76
2021/04/17 13:14:09;;;;;;;46.20;32.23;;;;;;;6.60;80.10;99138.12;2257681;79;21096;-77
2021/04/17 13:17:10;;;;;;;81.43;64.90;;;;;;;6.61;80.01;99142.06;2257809;79;21375;-77
2021/04/17 13:20:11;;;;;;;100.67;79.63;;;;;;;6.61;80.01;99142.06;2257910;79;21065;-77
2021/04/17 13:23:12;;;;;;;92.40;71.77;;;;;;;6.66;80.27;99136.60;2257908;79;21073;-77
2021/04/17 13:26:16;;;;;;;80.67;58.27;;;;;;;6.72;79.82;99142.40;2257821;79;21100;-77
2021/04/17 13:29:16;;;;;;;49.67;32.17;;;;;;;6.75;80.03;99143.80;2257710;79;21131;-77
2021/04/17 13:32:17;;;;;;;44.10;28.50;;;;;;;6.69;79.76;99144.48;2257612;79;21147;-77
2021/04/17 13:35:18;;;;;;;41.10;25.40;;;;;;;6.64;79.95;99145.16;2257852;78;21359;-77
2021/04/17 13:38:19;;;;;;;38.40;26.20;;;;;;;6.62;79.78;99146.83;2257789;79;21398;-77
2021/04/17 13:41:20;;;;;;;53.97;35.77;;;;;;;6.60;80.18;99145.90;2257885;79;21133;-77
2021/04/17 13:44:21;;;;;;;60.73;37.90;;;;;;;6.64;80.27;99155.55;2257869;79;21065;-77
2021/04/17 13:47:23;;;;;;;30.40;19.63;;;;;;;6.69;80.41;99153.56;2257884;79;21387;-77
2021/04/17 13:50:24;;;;;;;25.07;17.53;;;;;;;6.72;79.89;99159.27;2257915;79;21105;-77
2021/04/17 13:53:25;;;;;;;25.00;17.80;;;;;;;6.68;79.58;99167.36;2257821;79;21160;-77
2021/04/17 13:56:26;;;;;;;28.80;18.70;;;;;;;6.68;79.93;99167.78;2258131;79;21081;-76
2021/04/17 13:59:27;;;;;;;25.40;18.87;;;;;;;6.65;79.90;99162.49;2257835;79;21387;-78
2021/04/17 14:02:28;;;;;;;29.50;20.50;;;;;;;6.65;79.90;99162.49;2257849;79;21128;-77